METAR Data
IDs: Format: Raw Decoded Include TAF

Data at: 2326 UTC 25 Oct 2021

PAKK 252256Z AUTO VRB03KT 10SM CLR M02/M02 A2929 RMK AO2 SLP929 T10171022 FZRANO
PAKK 252156Z AUTO 19003KT 10SM OVC046 M02/M02 A2928 RMK AO2 SLP926 T10171022 FZRANO
PAKK 252056Z AUTO 27003KT 10SM OVC040 M03/M04 A2928 RMK AO2 SNE18 SLP924 P0000 60000 T10331044 53002 FZRANO
PAKK 251956Z AUTO 31003KT 9SM -SN FEW027 OVC040 M05/M06 A2928 RMK AO2 SLP923 P0000 T10501056 FZRANO
PAKK 251949Z AUTO 00000KT 9SM -SN SCT027 OVC040 M05/M06 A2927 RMK AO2 P0000 FZRANO
PAKK 251926Z AUTO 00000KT 3SM -SN BR FEW012 BKN019 OVC025 M05/M06 A2927 RMK AO2 P0000 FZRANO
PAKK 251905Z AUTO 00000KT 1SM -SN BR SCT011 OVC018 M05/M06 A2927 RMK AO2 VIS 1/2V1 3/4 P0000 FZRANO
PAKK 251901Z AUTO 00000KT 3/4SM -SN BR BKN013 OVC018 M05/M06 A2927 RMK AO2 VIS 1/2V1 3/4 P0000 FZRANO
PAKK 251856Z AUTO 00000KT 1SM -SN BR SCT013 OVC018 M05/M06 A2927 RMK AO2 SLP921 P0000 T10501061 FZRANO
PAKK 251852Z AUTO 00000KT 1 1/4SM -SN BR OVC018 M05/M06 A2927 RMK AO2 VIS 3/4V1 3/4 P0000 FZRANO
PAKK 251840Z AUTO 00000KT 2SM -SN BR OVC018 M05/M06 A2927 RMK AO2 VIS 1 1/4V4 P0000 FZRANO
PAKK 251829Z AUTO 00000KT 4SM -SN BR BKN018 OVC034 M05/M06 A2927 RMK AO2 P0000 FZRANO
PAKK 251756Z AUTO 01003KT 10SM -SN OVC040 M05/M06 A2926 RMK AO2 SNB53 SLP916 P0000 60000 T10501056 11039 21067 50003 FZRANO
PAKK 251656Z AUTO VRB03KT 10SM OVC040 M07/M08 A2926 RMK AO2 SLP917 T10671078 FZRANO
PAKK 251556Z AUTO 00000KT 10SM OVC042 M06/M07 A2925 RMK AO2 SLP913 T10611067 FZRANO
PAKK 251456Z AUTO 29004KT 10SM SCT044 M06/M06 A2925 RMK AO2 SLP913 T10561061 58001 FZRANO
PAKK 251356Z AUTO 30004KT 10SM CLR M05/M06 A2925 RMK AO2 SLP914 T10501056 FZRANO
PAKK 251256Z AUTO 00000KT 10SM CLR M04/M05 A2925 RMK AO2 SLP914 T10441050 FZRANO
PAKK 251156Z AUTO 00000KT 10SM SCT018 M04/M04 A2925 RMK AO2 SLP914 T10391044 11011 21044 58005 FZRANO
PAKK 251146Z AUTO 00000KT 10SM BKN018 M04/M04 A2925 RMK AO2 FZRANO
PAKK 251056Z AUTO 00000KT 10SM FEW012 SCT027 M04/M04 A2926 RMK AO2 SLP916 T10391044 FZRANO
PAKK 251047Z AUTO 00000KT 10SM SCT012 OVC027 M04/M04 A2926 RMK AO2 FZRANO
PAKK 251022Z AUTO 00000KT 10SM BKN014 BKN024 M04/M04 A2926 RMK AO2 FZRANO
PAKK 250956Z AUTO 27003KT 10SM CLR M03/M04 A2926 RMK AO2 SLP918 T10331039 FZRANO
PAKK 250939Z AUTO 27003KT 10SM SCT014 M03/M03 A2926 RMK AO2 FZRANO
PAKK 250924Z AUTO 27003KT 10SM SCT007 BKN014 M02/M03 A2926 RMK AO2 FZRANO
PAKK 250856Z AUTO 26003KT 10SM OVC007 M02/M02 A2926 RMK AO2 CIG 003V012 SLP919 T10171022 400111022 56001 FZRANO
PAKK 250854Z AUTO 00000KT 10SM FEW003 OVC009 M02/M02 A2926 RMK AO2 CIG 007V012 400111022 FZRANO
PAKK 250827Z AUTO VRB03KT 10SM OVC003 M02/M02 A2927 RMK AO2 FZRANO
PAKK 250812Z AUTO 00000KT 10SM BKN005 OVC018 M02/M02 A2927 RMK AO2 FZRANO
PAKK 250804Z AUTO VRB03KT 10SM SCT005 OVC016 M02/M03 A2927 RMK AO2 FZRANO
PAKK 250756Z AUTO 22003KT 10SM OVC016 M02/M03 A2927 RMK AO2 SLP920 T10221028 FZRANO
PAKK 250719Z AUTO 00000KT 10SM SCT004 OVC016 M02/M03 A2927 RMK AO2 FZRANO
PAKK 250656Z AUTO 24003KT 10SM BKN004 OVC016 M02/M02 A2927 RMK AO2 CIG 003V009 SLP920 T10171022 FZRANO
PAKK 250645Z AUTO 19004KT 6SM BR BKN004 OVC008 M01/M02 A2927 RMK AO2 FZRANO
PAKK 250556Z AUTO 18005KT 10SM BKN006 OVC013 M01/M02 A2927 RMK AO2 CIG 002V010 SLP921 60000 T10111017 10000 21022 58008 FZRANO
PAKK 250546Z AUTO VRB04KT 10SM BKN008 OVC013 M01/M02 A2927 RMK AO2 CIG 007V012 FZRANO
PAKK 250509Z AUTO 19004KT 10SM OVC013 M01/M02 A2928 RMK AO2 FZRANO
PAKK 250456Z AUTO 17004KT 10SM BKN015 M02/M02 A2928 RMK AO2 SLP924 T10171022 FZRANO
PAKK 250408Z AUTO 22003KT 10SM BKN017 BKN044 M02/M03 A2929 RMK AO2 FZRANO
PAKK 250356Z AUTO 22004KT 10SM FEW017 SCT028 BKN044 M02/M03 A2929 RMK AO2 SLP927 T10171028 FZRANO
PAKK 250337Z AUTO VRB03KT 10SM SCT015 M02/M03 A2929 RMK AO2 FZRANO
PAKK 250256Z AUTO 24003KT 10SM BKN017 M01/M02 A2929 RMK AO2 SLP929 60000 T10111022 56009 FZRANO
PAKK 250249Z AUTO 22003KT 10SM BKN017 M01/M02 A2930 RMK AO2 FZRANO
PAKK 250228Z AUTO 21004KT 10SM SCT013 M01/M02 A2930 RMK AO2 FZRANO
PAKK 250139Z AUTO 18007KT 4SM -SN BR BKN005 BKN009 OVC013 00/M01 A2930 RMK AO2 UPE09SNB09 CIG 002V008 P0000 FZRANO
PAKK 250134Z AUTO 18006KT 2SM -SN BR BKN003 OVC009 00/M01 A2930 RMK AO2 UPE09SNB09 CIG 002V007 P0000 FZRANO
PAKK 250125Z AUTO 18006KT 2SM -SN BR BKN005 BKN009 OVC016 00/M01 A2930 RMK AO2 VIS 3/4V5 UPE09SNB09 CIG 002V007 P0000 FZRANO
PAKK 250117Z AUTO 17008KT 3SM -SN BR BKN005 OVC009 00/M01 A2930 RMK AO2 UPE09SNB09 CIG 002V007 P0000 FZRANO
PAKK 250110Z AUTO 17009KT 4SM -SN BR SCT005 OVC009 00/M01 A2930 RMK AO2 UPE09SNB09 CIG 006V012 P0000 FZRANO
PAKK 250048Z AUTO 18008KT 8SM UP BKN003 BKN010 OVC013 00/M01 A2931 RMK AO2 UPB15E17B45SNE2359B17E40 P0000 FZRANO
PAKK 250035Z AUTO 16010KT 4SM -SN BR SCT003 SCT010 OVC015 00/M01 A2931 RMK AO2 UPB15E17SNE2359B17 P0000 FZRANO
PAKK 250022Z AUTO 17010G14KT 1 1/2SM -SN BR FEW003 SCT010 OVC015 00/M01 A2931 RMK AO2 VIS 3/4V5 UPB15E17SNE2359B17 P0000 FZRANO
PAKK 250019Z AUTO 17010G14KT 2 1/2SM -SN BR SCT003 BKN013 OVC018 00/M01 A2932 RMK AO2 VIS 1V5 UPB15E17SNE2359B17 P0000 FZRANO
PAKK 250011Z AUTO 17008KT 10SM SCT003 OVC016 00/M01 A2932 RMK AO2 SNE2359 P0000 FZRANO
PAKK 250003Z AUTO 17009KT 9SM BKN016 00/M01 A2932 RMK AO2 SNE2359 P0000 FZRANO
PAKK 242356Z AUTO 17008G15KT 6SM -SN BR FEW006 BKN013 OVC019 00/M01 A2932 RMK AO2 UPB2258E03B45E48RAB31E35SNB03E45B48 SLP938 P0000 60000 T00001006 10011 21006 58008 FZRANO
PAKK 242346Z AUTO 17008KT 7SM UP SCT006 OVC013 00/M01 A2933 RMK AO2 UPB2258E03B45RAB31E35SNB03E45 P0000 FZRANO
PAKK 242329Z AUTO 18008KT 7SM -SN BKN004 OVC013 01/M01 A2933 RMK AO2 UPB2258E03SNB03 CIG 002V007 P0000 FZRANO
PAKK 242311Z AUTO 18008KT 3SM -SN BR FEW004 BKN013 OVC020 00/M01 A2933 RMK AO2 UPB2258E03SNB03 P0000 FZRANO
PAKK 242306Z AUTO 18008KT 2 1/2SM -SN BR FEW004 BKN015 OVC022 00/M01 A2933 RMK AO2 VIS 1V5 UPB2258E03SNB03 P0000 FZRANO
PAKK 242256Z AUTO 18009KT 10SM BKN018 OVC022 00/M01 A2933 RMK AO2 SLP943 T00001006 FZRANO
PAKK 242241Z AUTO 17008KT 10SM FEW004 BKN021 OVC026 01/M01 A2934 RMK AO2 FZRANO
PAKK 242156Z AUTO 16008KT 10SM BKN019 OVC026 01/00 A2934 RMK AO2 SLP945 T00060000 FZRANO
PAKK 242129Z AUTO 16008KT 10SM SCT002 OVC024 01/M01 A2934 RMK AO2 FZRANO
PAKK 242114Z AUTO 16010KT 10SM BKN002 BKN019 OVC026 00/M01 A2934 RMK AO2 FZRANO
PAKK 242056Z AUTO 17008KT 4SM BR BKN004 OVC019 00/M01 A2934 RMK AO2 RAB10E12UPB33E37SNB12E33 SLP946 P0000 60000 T00001006 58002 FZRANO
PAKK 242035Z AUTO 17007KT 9SM UP BKN004 OVC007 00/M01 A2934 RMK AO2 RAB10E12UPB33SNB12E33 P0000 FZRANO
PAKK 242028Z AUTO 17006KT 2 1/2SM -SN BR BKN004 BKN014 OVC033 00/M01 A2934 RMK AO2 RAB10E12SNB12 CIG 003V009 P0000 FZRANO
PAKK 242018Z AUTO 18007KT 1 1/4SM -SN BR SCT004 BKN008 OVC035 00/M01 A2935 RMK AO2 VIS 1/2V3 RAB10E12SNB12 P0000 FZRANO
PAKK 242012Z AUTO 18007KT 2 1/2SM -SN BR FEW006 BKN016 OVC033 01/M01 A2934 RMK AO2 RAB10E12SNB12 P0000 FZRANO
PAKK 241956Z AUTO 16007KT 10SM SCT018 SCT024 OVC035 01/M01 A2934 RMK AO2 SLP946 T00061006 FZRANO
PAKK 241917Z AUTO 15006KT 10SM SCT017 OVC033 M01/M02 A2935 RMK AO2 FZRANO
PAKK 241856Z AUTO 17007KT 9SM SCT017 BKN022 OVC031 M01/M01 A2935 RMK AO2 UPB39E53SNB41E51 SLP948 P0000 T10061011 FZRANO
PAKK 241826Z AUTO 16007KT 10SM OVC031 M01/M02 A2935 RMK AO2 FZRANO
PAKK 241756Z AUTO VRB04KT 10SM FEW004 OVC026 M01/M02 A2935 RMK AO2 SLP948 60000 T10061017 11006 21017 58005 FZRANO
PAKK 241716Z AUTO 00000KT 10SM BKN004 OVC028 M01/M02 A2935 RMK AO2 FZRANO
PAKK 241656Z AUTO 00000KT 10SM FEW003 OVC028 M01/M02 A2936 RMK AO2 SLP951 T10061017 FZRANO
PAKK 241648Z AUTO 18004KT 10SM SCT003 OVC028 M01/M02 A2936 RMK AO2 FZRANO
PAKK 241614Z AUTO 00000KT 10SM BKN003 BKN010 OVC030 M01/M01 A2936 RMK AO2 FZRANO
PAKK 241556Z AUTO 13003KT 10SM SCT003 BKN010 OVC030 M01/M02 A2936 RMK AO2 UPB1459E56SNB10E20 CIG 007V013 SLP953 P0000 T10111017 FZRANO
PAKK 241527Z AUTO 00000KT 10SM BKN006 BKN022 OVC029 M01/M02 A2936 RMK AO2 UPB1459E26SNB10E20 CIG 004V009 P0000 FZRANO
PAKK 241511Z AUTO 00000KT 10SM -SN SCT008 BKN018 OVC031 M01/M02 A2937 RMK AO2 UPB1459E10SNB10 P0000 FZRANO
PAKK 241456Z AUTO 00000KT 3SM BR BKN008 OVC016 M01/M02 A2936 RMK AO2 UPB07E49SNB33E43 SLP953 P0000 60000 T10111017 51002 FZRANO
PAKK 241454Z AUTO 00000KT 3SM BR BKN008 OVC018 M01/M02 A2936 RMK AO2 UPB07E49SNB33E43 P0000 FZRANO
PAKK 241430Z AUTO 05003KT 1 1/2SM UP BR BKN003 BKN008 OVC017 M01/M02 A2936 RMK AO2 UPB07 P0000 FZRANO
PAKK 241356Z AUTO 00000KT 1/2SM FZFG OVC003 M01/M02 A2936 RMK AO2 SLP953 T10111022 FZRANO
PAKK 241313Z AUTO 00000KT 3/4SM BR OVC003 M01/M02 A2936 RMK AO2 FZRANO
PAKK 241305Z AUTO 00000KT 1SM BR OVC003 M02/M02 A2936 RMK AO2 FZRANO
PAKK 241256Z AUTO 00000KT 2 1/2SM BR OVC003 M02/M03 A2936 RMK AO2 UPE56 SLP952 P0000 T10171028 FZRANO
PAKK 241235Z AUTO 00000KT 10SM UP OVC003 M02/M03 A2936 RMK AO2 P0000 FZRANO
PAKK 241156Z AUTO 00000KT 6SM UP BR OVC005 M02/M03 A2936 RMK AO2 UPB47SNE47 SLP951 P0000 60001 70002 T10171028 11006 21017 52001 FZRANO
PAKK 241153Z AUTO 00000KT 5SM UP BR OVC005 M02/M03 A2936 RMK AO2 UPB47SNE47 P0000 FZRANO